Time;durP1;ratioP1;P1;durP2;ratioP2;P2;SDS_P1;SDS_P2;PMS_P1;PMS_P2;Temp;Humidity;BMP_temperature;BMP_pressure;BME280_temperature;BME280_humidity;BME280_pressure;Samples;Min_cycle;Max_cycle;Signal;HPM_P1;HPM_P2
2023/01/05 00:01:16;;;;;;;57.83;32.20;;;;;;;9.90;92.54;97789.88;4964738;28;20441;-53
2023/01/05 00:03:43;;;;;;;57.72;30.55;;;;;;;9.42;92.70;97729.84;4982042;28;20055;-55
2023/01/05 00:06:12;;;;;;;59.30;29.95;;;;;;;9.81;92.91;97792.78;4982482;28;20628;-53
2023/01/05 00:08:40;;;;;;;56.08;30.10;;;;;;;9.51;93.57;97755.44;4984258;28;20062;-53
2023/01/05 00:22:37;;;;;;;53.75;28.58;;;;;;;9.85;92.35;97787.34;4984370;28;20467;-54
2023/01/05 00:25:13;;;;;;;54.35;28.73;;;;;;;9.75;92.19;97765.69;4983092;28;20058;-56
2023/01/05 00:27:41;;;;;;;58.35;29.38;;;;;;;9.81;93.01;97781.72;4984085;28;20046;-54
2023/01/05 00:30:13;;;;;;;58.55;30.60;;;;;;;9.63;93.15;97752.66;4984480;28;20054;-58
2023/01/05 00:32:41;;;;;;;59.05;29.13;;;;;;;9.74;93.46;97770.41;4982875;28;20109;-57
2023/01/05 00:35:10;;;;;;;62.17;31.05;;;;;;;9.81;93.14;97772.59;4983987;28;20058;-53
2023/01/05 00:37:39;;;;;;;59.92;32.20;;;;;;;9.67;93.15;97761.91;4984419;28;20113;-54
2023/01/05 00:40:09;;;;;;;58.90;30.20;;;;;;;9.71;93.89;97765.56;4986380;28;20198;-58
2023/01/05 00:42:36;;;;;;;57.90;29.02;;;;;;;9.70;93.18;97763.16;4987002;28;20446;-57
2023/01/05 00:45:05;;;;;;;59.58;30.00;;;;;;;9.42;92.62;97701.41;4985780;28;20108;-57
2023/01/05 00:47:32;;;;;;;55.70;28.67;;;;;;;9.72;92.35;97750.56;4986142;28;20108;-57
2023/01/05 00:49:58;;;;;;;55.95;30.40;;;;;;;9.74;93.47;97770.41;4987617;28;20444;-56
2023/01/05 00:52:25;;;;;;;55.45;30.63;;;;;;;9.75;93.36;97774.81;4975817;28;20149;-55
2023/01/05 00:54:51;;;;;;;54.30;29.33;;;;;;;9.63;92.86;97749.91;4982241;28;20082;-56
2023/01/05 00:57:18;;;;;;;61.78;30.85;;;;;;;9.64;92.76;97747.94;4968096;28;20499;-57
2023/01/05 00:59:45;;;;;;;53.67;29.15;;;;;;;9.73;93.41;97792.88;4968112;28;20051;-57
2023/01/05 01:02:12;;;;;;;55.28;30.25;;;;;;;9.61;93.04;97741.13;4973112;28;20054;-57
2023/01/05 01:04:39;;;;;;;53.50;29.27;;;;;;;9.75;93.26;97772.03;4987304;28;20050;-55
2023/01/05 01:07:06;;;;;;;59.55;30.00;;;;;;;9.36;92.86;97705.56;4987440;28;20476;-57
2023/01/05 01:09:33;;;;;;;55.22;28.05;;;;;;;9.77;92.46;97752.31;4987059;28;20559;-57
2023/01/05 01:12:00;;;;;;;58.47;29.38;;;;;;;9.82;92.13;97747.34;4985949;28;20066;-55
2023/01/05 01:14:27;;;;;;;64.05;30.48;;;;;;;9.75;92.45;97747.16;4986638;28;20109;-57
2023/01/05 01:16:53;;;;;;;64.60;31.58;;;;;;;9.62;92.22;97717.88;4986982;28;20258;-54
2023/01/05 01:19:23;;;;;;;52.38;29.15;;;;;;;9.80;92.01;97735.81;4986833;28;20053;-55
2023/01/05 01:21:50;;;;;;;52.38;28.05;;;;;;;9.78;92.27;97735.38;4986858;28;20058;-54
2023/01/05 01:24:20;;;;;;;50.97;26.70;;;;;;;9.54;92.52;97699.44;4986986;28;20437;-58
2023/01/05 01:26:47;;;;;;;57.13;28.60;;;;;;;9.42;92.68;97696.66;4986640;28;20603;-55
2023/01/05 01:29:16;;;;;;;55.30;29.33;;;;;;;9.69;93.32;97734.69;4986887;28;20125;-55
2023/01/05 01:31:44;;;;;;;54.72;29.40;;;;;;;9.28;93.00;97668.56;4986569;28;20050;-52
2023/01/05 01:34:10;;;;;;;55.75;30.80;;;;;;;9.34;93.05;97667.22;4986611;28;20082;-54
2023/01/05 01:36:37;;;;;;;56.00;29.52;;;;;;;9.67;93.25;97719.59;4985994;28;20050;-59
2023/01/05 01:39:04;;;;;;;58.80;28.48;;;;;;;9.69;93.10;97711.75;4985142;28;20590;-53
2023/01/05 01:41:30;;;;;;;49.65;27.63;;;;;;;9.25;92.72;97641.63;4986299;28;20050;-53
2023/01/05 01:43:58;;;;;;;55.53;28.00;;;;;;;9.67;93.15;97703.81;4986497;28;20065;-57
2023/01/05 01:46:26;;;;;;;51.78;26.98;;;;;;;9.66;92.58;97695.88;4986282;28;20061;-54
2023/01/05 01:49:08;;;;;;;53.92;27.80;;;;;;;9.67;93.31;97694.69;4984689;28;20050;-54
2023/01/05 01:51:40;;;;;;;56.00;31.40;;;;;;;9.52;92.96;97674.09;4986010;28;20053;-56
2023/01/05 01:54:10;;;;;;;53.53;28.27;;;;;;;9.56;92.86;97685.25;4986238;28;20078;-57
2023/01/05 01:56:49;;;;;;;52.40;26.27;;;;;;;9.67;92.66;97692.75;4985929;28;20513;-57
2023/01/05 01:59:16;;;;;;;57.10;30.55;;;;;;;9.69;92.22;97693.19;4984608;28;20058;-55
2023/01/05 02:01:43;;;;;;;47.83;26.15;;;;;;;9.72;92.13;97689.72;4984896;28;20417;-57
2023/01/05 02:04:10;;;;;;;49.15;26.30;;;;;;;9.73;91.75;97696.06;4986173;28;20157;-57
2023/01/05 02:06:38;;;;;;;49.67;25.67;;;;;;;9.76;91.42;97674.03;4985909;28;20538;-57
2023/01/05 02:09:05;;;;;;;46.55;26.20;;;;;;;9.76;91.49;97679.59;4986276;28;20054;-57
2023/01/05 02:12:17;;;;;;;62.53;29.33;;;;;;;9.78;91.24;97680.03;4985738;28;20567;-56
2023/01/05 02:14:59;;;;;;;48.88;26.48;;;;;;;9.76;91.17;97674.03;4985399;28;20054;-56
2023/01/05 02:18:08;;;;;;;50.95;26.20;;;;;;;9.27;94.15;97678.03;4984200;28;20084;-55
2023/01/05 02:20:53;;;;;;;58.35;28.98;;;;;;;9.17;96.15;97678.47;4983380;28;20054;-57
2023/01/05 02:23:43;;;;;;;120.38;48.72;;;;;;;8.84;95.63;97581.09;4974201;28;20153;-55
2023/01/05 02:26:35;;;;;;;165.77;57.05;;;;;;;9.35;95.11;97671.56;4965987;28;20069;-57
2023/01/05 02:29:19;;;;;;;216.77;53.15;;;;;;;9.36;94.98;97659.34;4966443;28;20121;-54
2023/01/05 02:31:58;;;;;;;343.40;81.45;;;;;;;9.32;94.49;97658.44;4966089;28;20058;-57
2023/01/05 02:34:51;;;;;;;59.47;29.48;;;;;;;9.38;94.13;97651.53;4980846;28;20090;-57
2023/01/05 02:37:43;;;;;;;58.03;30.20;;;;;;;9.36;94.11;97653.03;4966183;28;20113;-57
2023/01/05 02:40:20;;;;;;;55.05;28.63;;;;;;;9.38;94.18;97723.41;4965850;28;20131;-54
2023/01/05 02:42:49;;;;;;;58.50;29.52;;;;;;;9.39;94.13;97658.66;4965873;28;20054;-54
2023/01/05 02:45:16;;;;;;;63.67;30.25;;;;;;;9.45;93.87;97649.00;4965742;28;20142;-54
2023/01/05 02:47:44;;;;;;;54.72;28.75;;;;;;;9.42;93.66;97641.38;4964382;28;20057;-57
2023/01/05 02:50:16;;;;;;;55.40;28.98;;;;;;;9.46;93.22;97636.78;4979969;28;20058;-54
2023/01/05 02:53:02;;;;;;;66.45;31.88;;;;;;;9.49;93.35;97635.25;4980885;28;20280;-53
2023/01/05 02:55:45;;;;;;;1999.90;999.90;;;;;;;9.40;92.67;97616.06;4965762;28;20078;-54
2023/01/05 02:58:22;;;;;;;1999.90;999.90;;;;;;;9.35;92.35;97599.69;4965870;28;20055;-54
2023/01/05 03:01:16;;;;;;;1999.90;999.90;;;;;;;9.32;93.88;97622.50;4964917;28;20106;-57
2023/01/05 03:03:56;;;;;;;1999.90;999.90;;;;;;;9.28;94.61;97624.34;4983932;28;20663;-53
2023/01/05 03:06:26;;;;;;;1999.90;999.90;;;;;;;9.25;94.96;97618.72;4984841;28;20046;-57
2023/01/05 03:09:03;;;;;;;50.75;28.80;;;;;;;9.18;95.58;97611.00;4985312;28;20054;-57
2023/01/05 03:15:21;;;;;;;58.05;30.25;;;;;;;9.17;95.62;97612.16;4984147;28;20063;-53
2023/01/05 03:17:53;;;;;;;67.05;30.25;;;;;;;9.13;95.97;97611.25;4986194;28;20137;-55
2023/01/05 03:20:25;;;;;;;62.92;30.15;;;;;;;8.88;95.43;97566.25;4984526;28;20054;-57
2023/01/05 03:37:39;;;;;;;58.17;29.75;;;;;;;9.16;96.08;97591.22;4985102;28;20483;-54
2023/01/05 03:40:13;;;;;;;61.60;29.63;;;;;;;8.94;96.01;97564.06;4985324;28;20428;-57
2023/01/05 03:42:42;;;;;;;52.60;27.10;;;;;;;9.18;95.83;97605.50;4984308;28;20054;-57
2023/01/05 03:45:11;;;;;;;61.53;30.17;;;;;;;8.75;95.98;97526.00;4984616;28;20050;-57
2023/01/05 03:47:37;;;;;;;57.67;29.98;;;;;;;8.70;96.12;97506.06;4984504;28;20092;-57
2023/01/05 03:50:04;;;;;;;53.42;28.30;;;;;;;9.17;96.02;97584.50;4984525;28;20084;-57
2023/01/05 03:52:31;;;;;;;59.72;30.40;;;;;;;9.19;96.00;97590.50;4984379;28;20082;-54
2023/01/05 03:54:57;;;;;;;67.35;34.10;;;;;;;9.20;95.79;97583.81;4984649;28;20066;-53
2023/01/05 03:57:24;;;;;;;68.78;34.55;;;;;;;8.93;95.71;97546.66;4984012;28;20081;-54
2023/01/05 03:59:51;;;;;;;68.10;33.40;;;;;;;9.24;95.27;97581.97;4984735;28;20050;-57
2023/01/05 04:02:17;;;;;;;79.05;40.15;;;;;;;9.27;95.20;97583.22;4984077;28;20193;-55
2023/01/05 04:04:44;;;;;;;85.07;40.55;;;;;;;9.28;95.06;97579.34;4984995;28;20066;-57
2023/01/05 04:07:10;;;;;;;64.03;32.20;;;;;;;9.32;95.10;97581.03;4983807;28;20086;-54
2023/01/05 04:09:37;;;;;;;65.90;31.80;;;;;;;9.23;94.58;97577.63;4984322;28;20054;-58
2023/01/05 04:12:04;;;;;;;62.30;31.00;;;;;;;8.83;95.06;97519.53;4984332;28;20093;-58
2023/01/05 04:14:30;;;;;;;56.50;29.92;;;;;;;8.71;95.46;97510.47;4986825;28;20050;-58
2023/01/05 04:16:57;;;;;;;61.75;29.95;;;;;;;8.97;95.24;97553.13;4986543;28;20623;-54
2023/01/05 04:19:24;;;;;;;59.70;28.00;;;;;;;8.40;96.18;97477.91;4988588;28;20061;-57
2023/01/05 04:21:50;;;;;;;57.28;28.67;;;;;;;9.06;95.83;97566.78;4986500;28;20058;-57
2023/01/05 04:24:17;;;;;;;59.85;29.95;;;;;;;9.15;94.92;97570.25;4986688;28;20295;-56
2023/01/05 04:26:44;;;;;;;58.00;28.50;;;;;;;9.18;94.70;97575.09;4987911;28;20142;-54
2023/01/05 04:29:10;;;;;;;51.90;27.45;;;;;;;8.97;94.45;97549.53;4986408;28;20599;-56
2023/01/05 04:31:37;;;;;;;84.47;37.45;;;;;;;9.13;95.47;97575.31;4987731;28;20050;-55
2023/01/05 04:34:04;;;;;;;76.40;36.00;;;;;;;8.83;95.14;97515.97;4987973;28;20133;-56
2023/01/05 04:36:30;;;;;;;70.93;33.33;;;;;;;8.97;95.88;97555.06;4987664;28;20104;-58
2023/01/05 04:38:57;;;;;;;68.85;32.70;;;;;;;8.95;95.87;97547.13;4987923;28;20476;-59
2023/01/05 04:41:23;;;;;;;64.70;30.17;;;;;;;9.02;96.46;97554.84;4987423;28;20105;-55
2023/01/05 04:43:50;;;;;;;59.55;28.70;;;;;;;9.02;96.35;97554.84;4985992;28;20058;-56
2023/01/05 04:46:17;;;;;;;60.00;28.77;;;;;;;8.97;96.62;97538.50;4987230;28;20137;-54
2023/01/05 04:48:43;;;;;;;53.60;27.42;;;;;;;9.15;95.53;97561.97;4987388;28;20054;-57
2023/01/05 04:51:10;;;;;;;56.78;26.92;;;;;;;9.07;96.19;97551.84;4987150;28;20504;-57
2023/01/05 04:53:36;;;;;;;53.60;28.42;;;;;;;9.08;96.33;97553.44;4987255;28;20089;-57
2023/01/05 04:56:03;;;;;;;64.68;32.47;;;;;;;9.00;96.72;97533.09;4987161;28;20197;-57
2023/01/05 04:58:30;;;;;;;70.35;33.40;;;;;;;8.96;96.59;97523.88;4987379;28;20105;-55
2023/01/05 05:00:57;;;;;;;67.35;32.80;;;;;;;9.10;96.66;97551.94;4987034;28;20050;-57
2023/01/05 05:03:23;;;;;;;70.55;34.20;;;;;;;9.17;96.26;97540.28;4987097;28;20058;-57
2023/01/05 05:05:58;;;;;;;83.00;40.00;;;;;;;9.27;94.63;97548.09;4987302;28;20853;-54
2023/01/05 05:08:24;;;;;;;71.95;36.00;;;;;;;9.16;94.51;97533.16;4987099;28;20050;-57
2023/01/05 05:10:51;;;;;;;78.70;36.67;;;;;;;9.18;94.98;97542.69;4985345;28;20082;-54
2023/01/05 05:13:17;;;;;;;78.70;41.53;;;;;;;9.20;95.18;97550.66;4986891;28;20108;-56
2023/01/05 05:15:45;;;;;;;71.55;34.67;;;;;;;8.96;95.45;97514.78;4987234;28;20488;-57
2023/01/05 05:18:11;;;;;;;66.25;33.55;;;;;;;9.17;95.10;97545.81;4962347;28;20059;-57
2023/01/05 05:20:41;;;;;;;67.15;34.67;;;;;;;9.18;95.62;97536.41;4985956;28;20091;-57
2023/01/05 05:23:08;;;;;;;71.65;32.88;;;;;;;9.14;95.73;97541.00;4986971;28;20636;-57
2023/01/05 05:25:35;;;;;;;67.88;34.25;;;;;;;8.73;96.03;97497.91;4985322;28;20073;-54
2023/01/05 05:28:01;;;;;;;70.07;34.53;;;;;;;9.06;96.72;97545.50;4986394;28;20500;-58
2023/01/05 05:30:28;;;;;;;71.97;37.03;;;;;;;9.11;96.36;97538.94;4986556;28;20110;-53
2023/01/05 05:32:55;;;;;;;73.97;38.70;;;;;;;8.67;96.54;97465.34;4986557;28;20509;-54
2023/01/05 05:35:21;;;;;;;86.70;44.97;;;;;;;9.09;96.21;97530.16;4986695;28;20516;-54
2023/01/05 05:37:48;;;;;;;102.55;47.63;;;;;;;9.03;96.52;97539.88;4986600;28;20078;-57
2023/01/05 05:40:21;;;;;;;;;;;;;;;9.07;96.03;97525.00;4987666;28;20086;-54
2023/01/05 05:42:48;;;;;;;121.95;60.05;;;;;;;8.92;96.87;97516.63;4986287;28;19968;-57
2023/01/05 05:45:15;;;;;;;110.32;56.67;;;;;;;9.08;96.20;97529.38;4985116;28;20046;-53
2023/01/05 05:47:42;;;;;;;105.10;52.50;;;;;;;9.06;95.87;97533.63;4992297;28;20077;-55
2023/01/05 05:50:09;;;;;;;109.18;53.33;;;;;;;9.07;96.51;97524.22;5004585;28;20143;-57
2023/01/05 05:52:35;;;;;;;113.60;54.38;;;;;;;9.05;96.63;97526.50;5004621;28;20432;-57
2023/01/05 05:55:03;;;;;;;102.18;49.60;;;;;;;9.10;96.66;97524.28;5006003;28;20046;-57
2023/01/05 05:57:29;;;;;;;88.05;44.63;;;;;;;9.01;95.83;97509.00;5005756;28;20053;-54
2023/01/05 05:59:56;;;;;;;90.65;43.83;;;;;;;9.20;95.22;97523.00;5005875;28;20868;-54
2023/01/05 06:02:23;;;;;;;100.65;46.70;;;;;;;9.18;95.26;97525.34;5003173;28;20054;-54
2023/01/05 06:04:49;;;;;;;92.40;46.13;;;;;;;9.11;95.00;97514.88;4985538;28;20580;-54
2023/01/05 06:07:16;;;;;;;89.75;43.17;;;;;;;9.19;95.12;97527.75;4986087;28;20120;-57
2023/01/05 06:09:43;;;;;;;94.28;47.75;;;;;;;9.03;94.58;97487.38;4986148;28;20073;-57
2023/01/05 06:12:09;;;;;;;98.43;48.42;;;;;;;9.18;95.22;97508.75;4985674;28;20048;-57
2023/01/05 06:14:36;;;;;;;97.60;51.08;;;;;;;9.17;94.68;97507.13;4985243;28;20050;-56
2023/01/05 06:17:02;;;;;;;109.95;51.83;;;;;;;9.33;94.87;97521.81;4986227;28;20050;-54
2023/01/05 06:19:29;;;;;;;111.45;55.45;;;;;;;8.60;94.58;97399.66;4985829;28;20057;-57
2023/01/05 06:21:56;;;;;;;165.20;85.88;;;;;;;9.27;93.25;97506.66;4986025;28;20047;-56
2023/01/05 06:24:22;;;;;;;141.45;74.65;;;;;;;8.76;93.97;97419.88;4985551;28;20670;-60
2023/01/05 06:26:49;;;;;;;158.43;83.45;;;;;;;9.44;94.14;97520.16;4977126;28;20062;-52
2023/01/05 06:29:16;;;;;;;142.43;72.68;;;;;;;9.38;94.06;97502.22;4985553;28;20137;-52
2023/01/05 06:31:42;;;;;;;140.30;72.97;;;;;;;9.57;93.97;97515.41;4985229;28;20046;-56
2023/01/05 06:34:09;;;;;;;123.07;65.93;;;;;;;9.66;93.09;97514.09;4985214;28;20050;-56
2023/01/05 06:36:36;;;;;;;98.10;51.78;;;;;;;9.17;91.94;97424.22;4984772;28;20061;-54
2023/01/05 06:39:02;;;;;;;80.10;48.33;;;;;;;9.38;92.06;97466.28;4981533;28;20057;-54
2023/01/05 06:41:29;;;;;;;70.28;37.80;;;;;;;9.13;92.85;97437.13;4988600;28;20693;-54
2023/01/05 06:43:56;;;;;;;77.05;44.95;;;;;;;9.53;93.42;97509.75;5004371;28;20145;-57
2023/01/05 06:46:22;;;;;;;80.63;46.30;;;;;;;9.60;93.02;97501.69;5004440;28;20053;-56
2023/01/05 06:48:50;;;;;;;98.75;53.28;;;;;;;9.22;92.97;97432.25;4997385;28;20050;-57
2023/01/05 06:51:17;;;;;;;69.32;34.40;;;;;;;8.61;97.27;97472.25;4998213;28;20050;-58
2023/01/05 06:53:43;;;;;;;72.05;38.08;;;;;;;8.69;99.25;97501.72;4993412;28;20552;-56
2023/01/05 06:56:10;;;;;;;66.05;34.30;;;;;;;9.09;97.46;97510.81;4998950;28;20168;-55
2023/01/05 06:58:37;;;;;;;61.78;34.08;;;;;;;8.35;98.89;97442.25;4984389;28;20054;-55
2023/01/05 07:01:04;;;;;;;64.65;34.22;;;;;;;8.31;100.00;97446.06;5001547;28;20061;-57
2023/01/05 07:03:30;;;;;;;67.22;36.05;;;;;;;8.91;99.36;97479.94;4984236;28;20057;-57
2023/01/05 07:05:57;;;;;;;70.47;38.83;;;;;;;9.17;98.74;97496.06;4984495;28;20069;-54
2023/01/05 07:08:24;;;;;;;65.15;34.08;;;;;;;8.96;96.80;97445.72;4983110;28;20448;-57
2023/01/05 07:10:50;;;;;;;70.90;36.65;;;;;;;9.32;97.01;97495.34;4984311;28;20517;-57
2023/01/05 07:13:17;;;;;;;71.85;37.40;;;;;;;9.41;96.55;97487.69;4984011;28;20414;-54
2023/01/05 07:15:44;;;;;;;69.95;36.88;;;;;;;9.52;95.59;97483.28;4976905;28;20051;-56
2023/01/05 07:18:11;;;;;;;75.22;37.25;;;;;;;9.31;94.93;97446.72;4965909;28;20109;-57
2023/01/05 07:20:37;;;;;;;72.93;38.03;;;;;;;9.73;94.29;97470.03;4995373;28;20072;-57
2023/01/05 07:23:04;;;;;;;70.25;36.17;;;;;;;9.75;93.32;97467.72;4995224;28;20103;-58
2023/01/05 07:25:32;;;;;;;73.35;36.88;;;;;;;8.79;93.12;97329.97;5003693;28;20068;-60
2023/01/05 07:27:58;;;;;;;75.30;38.40;;;;;;;9.30;94.54;97460.91;4985819;28;20591;-60
2023/01/05 07:30:25;;;;;;;83.07;40.63;;;;;;;9.29;95.33;97454.59;4999200;28;20045;-58
2023/01/05 07:32:52;;;;;;;78.22;41.13;;;;;;;9.41;95.88;97475.81;5002245;28;20428;-61
2023/01/05 07:35:18;;;;;;;86.55;43.42;;;;;;;9.58;95.20;97473.56;4994540;28;20108;-57
2023/01/05 07:37:45;;;;;;;86.53;42.80;;;;;;;9.72;94.11;97473.94;4983522;28;20575;-56
2023/01/05 07:40:12;;;;;;;85.40;45.67;;;;;;;9.65;93.71;97435.03;4987615;28;20602;-60
2023/01/05 07:42:38;;;;;;;85.22;43.53;;;;;;;9.78;93.13;97433.00;4988729;28;20050;-60
2023/01/05 07:45:06;;;;;;;77.32;41.63;;;;;;;9.97;92.35;97453.28;4984074;28;20112;-56
2023/01/05 07:47:32;;;;;;;76.82;38.88;;;;;;;10.03;92.17;97435.25;4987233;28;20193;-56
2023/01/05 07:50:00;;;;;;;64.60;37.53;;;;;;;10.42;90.55;97455.59;5005688;28;20053;-61
2023/01/05 07:52:29;;;;;;;66.93;37.03;;;;;;;10.63;90.18;97451.38;4999592;28;20049;-56
2023/01/05 07:54:57;;;;;;;67.93;37.40;;;;;;;10.73;87.97;97445.28;5000294;28;20050;-57
2023/01/05 07:57:24;;;;;;;75.47;41.55;;;;;;;10.84;87.36;97450.25;4995408;28;20054;-56
2023/01/05 07:59:50;;;;;;;73.50;39.80;;;;;;;10.66;86.81;97375.88;5006458;28;20453;-60
2023/01/05 08:02:17;;;;;;;71.78;39.70;;;;;;;10.92;85.76;97443.72;4995506;28;20066;-61
2023/01/05 08:04:44;;;;;;;64.20;36.88;;;;;;;10.87;86.14;97435.69;4995362;28;20052;-63
2023/01/05 08:07:11;;;;;;;66.78;36.03;;;;;;;10.68;86.51;97434.47;4994847;28;20082;-62
2023/01/05 08:12:23;;;;;;;65.28;35.50;;;;;;;10.66;87.01;97436.81;4987100;28;20042;-57
2023/01/05 08:14:50;;;;;;;65.03;34.58;;;;;;;10.26;86.75;97367.03;4987176;28;20058;-55
2023/01/05 08:17:16;;;;;;;67.30;36.08;;;;;;;10.78;86.74;97438.63;4990153;28;20046;-61
2023/01/05 08:19:43;;;;;;;68.45;35.88;;;;;;;10.87;85.84;97427.38;4987232;28;20046;-57
2023/01/05 08:22:10;;;;;;;71.43;36.97;;;;;;;8.83;86.10;97118.22;4984458;28;20559;-60
2023/01/05 08:24:36;;;;;;;71.72;37.67;;;;;;;10.65;86.67;97418.56;4987229;28;20098;-58
2023/01/05 08:27:03;;;;;;;65.78;36.08;;;;;;;10.72;86.19;97411.59;4999549;28;20136;-57
2023/01/05 08:29:30;;;;;;;63.17;35.00;;;;;;;9.78;85.95;97259.53;5006350;28;20046;-55
2023/01/05 08:31:57;;;;;;;65.15;38.00;;;;;;;10.34;87.33;97374.34;4986484;28;20112;-54
2023/01/05 08:34:23;;;;;;;75.18;39.83;;;;;;;10.40;88.08;97370.13;5005771;28;20046;-58
2023/01/05 08:36:56;;;;;;;63.70;36.30;;;;;;;10.62;87.17;97402.69;4995876;28;20113;-59
2023/01/05 08:39:23;;;;;;;76.47;40.47;;;;;;;10.53;87.75;97404.03;4998649;28;20614;-59
2023/01/05 08:41:50;;;;;;;71.50;38.13;;;;;;;10.62;87.25;97402.69;5006253;28;20084;-60
2023/01/05 08:44:16;;;;;;;72.40;38.50;;;;;;;10.50;87.79;97405.56;4986048;28;20274;-58
2023/01/05 08:46:43;;;;;;;71.65;36.90;;;;;;;10.60;87.75;97393.94;4987133;28;20108;-60
2023/01/05 08:49:09;;;;;;;68.20;37.85;;;;;;;10.65;87.59;97390.88;4987347;28;20059;-55
2023/01/05 08:51:36;;;;;;;62.17;34.90;;;;;;;10.77;87.29;97376.09;5001043;28;20488;-59
2023/01/05 08:54:03;;;;;;;72.00;38.03;;;;;;;10.95;86.21;97365.38;4999626;28;20698;-57
2023/01/05 08:56:30;;;;;;;58.50;34.78;;;;;;;10.98;85.67;97370.19;4979254;28;20116;-56
2023/01/05 08:59:04;;;;;;;62.15;34.90;;;;;;;10.87;85.36;97358.09;5001168;28;20124;-55
2023/01/05 09:01:31;;;;;;;61.67;33.20;;;;;;;11.22;84.42;97380.97;4999487;28;20050;-59
2023/01/05 09:03:58;;;;;;;60.72;32.00;;;;;;;11.32;84.27;97372.03;5001469;28;20145;-53
2023/01/05 09:06:24;;;;;;;65.25;34.92;;;;;;;11.24;83.94;97389.75;4989583;28;20612;-57
2023/01/05 09:08:51;;;;;;;56.28;33.38;;;;;;;10.99;83.78;97332.97;5006190;28;20077;-56
2023/01/05 09:11:20;;;;;;;51.13;29.85;;;;;;;11.05;83.22;97353.72;5005808;28;20590;-56
2023/01/05 09:13:53;;;;;;;48.50;28.77;;;;;;;11.03;83.30;97331.09;4997555;28;20058;-56
2023/01/05 09:16:22;;;;;;;57.08;30.98;;;;;;;11.12;83.02;97354.66;5003262;28;20057;-58
2023/01/05 09:19:10;;;;;;;58.25;32.45;;;;;;;11.11;83.55;97346.69;5000334;28;20085;-57
2023/01/05 09:21:39;;;;;;;59.17;33.33;;;;;;;11.25;82.97;97339.47;4995222;28;20060;-60
2023/01/05 09:24:10;;;;;;;55.40;30.75;;;;;;;11.24;82.41;97334.28;5004797;28;20461;-53
2023/01/05 09:26:38;;;;;;;49.83;28.70;;;;;;;10.75;81.88;97233.56;5004245;28;20046;-54
2023/01/05 09:29:04;;;;;;;54.25;31.20;;;;;;;11.42;81.12;97318.75;5006173;28;20084;-56
2023/01/05 09:31:31;;;;;;;51.15;30.42;;;;;;;11.57;79.58;97303.97;5003732;28;20060;-54
2023/01/05 09:33:58;;;;;;;46.97;28.20;;;;;;;11.13;78.45;97222.38;5005338;28;20065;-59
2023/01/05 09:36:25;;;;;;;48.72;28.27;;;;;;;11.72;77.75;97294.75;5004915;28;20060;-60
2023/01/05 09:38:53;;;;;;;55.28;31.88;;;;;;;11.82;77.34;97286.56;5005425;28;20073;-59
2023/01/05 09:41:23;;;;;;;46.33;26.35;;;;;;;12.05;75.52;97275.44;5005276;28;20517;-54
2023/01/05 09:43:55;;;;;;;45.70;25.95;;;;;;;12.06;74.12;97268.72;5005342;28;20488;-54
2023/01/05 09:46:43;;;;;;;45.38;26.75;;;;;;;12.11;73.70;97258.09;5005208;28;20053;-59
2023/01/05 09:49:13;;;;;;;44.67;26.02;;;;;;;12.33;73.48;97248.06;5005849;28;20128;-54
2023/01/05 09:51:41;;;;;;;46.03;27.52;;;;;;;12.50;72.62;97246.69;5003825;28;20143;-59
2023/01/05 09:54:18;;;;;;;41.53;25.02;;;;;;;12.01;70.83;97202.41;5003818;28;20100;-59
2023/01/05 09:56:46;;;;;;;45.78;25.65;;;;;;;12.63;70.88;97229.38;5004382;28;20057;-59
2023/01/05 09:59:41;;;;;;;42.63;25.95;;;;;;;12.90;69.39;97208.66;5005155;28;20049;-54
2023/01/05 10:02:32;;;;;;;38.63;22.90;;;;;;;13.01;68.59;97217.94;4995178;28;20603;-59
2023/01/05 10:05:01;;;;;;;32.70;20.63;;;;;;;13.14;66.04;97210.91;4985843;28;20066;-59
2023/01/05 10:07:43;;;;;;;35.40;20.17;;;;;;;13.31;65.08;97215.84;4985319;28;20420;-59
2023/01/05 10:10:28;;;;;;;30.63;19.60;;;;;;;13.30;64.22;97213.44;4983947;28;20050;-58
2023/01/05 10:13:02;;;;;;;31.25;21.20;;;;;;;13.12;64.19;97151.31;4983843;28;20153;-59
2023/01/05 10:15:35;;;;;;;30.67;20.23;;;;;;;13.46;63.60;97203.66;4984146;28;20505;-59
2023/01/05 10:18:10;;;;;;;22.95;17.60;;;;;;;13.62;62.30;97197.81;4985146;28;20065;-59
2023/01/05 10:20:51;;;;;;;28.70;18.60;;;;;;;13.76;62.24;97202.69;4985483;28;20061;-56
2023/01/05 10:23:20;;;;;;;29.95;19.25;;;;;;;13.94;61.68;97203.63;4985357;28;20053;-55
2023/01/05 10:26:25;;;;;;;27.45;18.48;;;;;;;13.86;61.47;97201.97;4983541;28;20065;-53
2023/01/05 10:29:11;;;;;;;28.88;19.17;;;;;;;13.84;61.72;97187.63;4985054;28;20081;-59
2023/01/05 10:31:58;;;;;;;34.10;19.60;;;;;;;13.53;61.95;97150.84;4984699;28;20109;-53
2023/01/05 10:34:48;;;;;;;33.47;20.85;;;;;;;13.52;61.54;97152.03;4985289;28;20050;-60
2023/01/05 10:37:36;;;;;;;30.40;19.00;;;;;;;13.66;61.49;97188.31;4984330;28;20109;-59
2023/01/05 10:40:18;;;;;;;25.52;15.43;;;;;;;13.70;60.63;97175.19;4985303;28;20058;-59
2023/01/05 10:43:13;;;;;;;23.60;16.80;;;;;;;13.76;59.97;97163.72;4985177;28;20434;-55
2023/01/05 10:45:40;;;;;;;24.17;16.58;;;;;;;13.76;60.40;97172.88;4985120;28;20116;-59
2023/01/05 10:48:30;;;;;;;22.63;16.40;;;;;;;13.45;59.60;97121.34;4984983;28;20140;-55
2023/01/05 10:50:57;;;;;;;25.48;16.08;;;;;;;13.38;60.01;97126.88;4984567;28;20313;-55
2023/01/05 10:53:26;;;;;;;27.58;17.15;;;;;;;13.59;60.04;97142.94;4984856;28;20489;-54
2023/01/05 10:55:56;;;;;;;26.63;15.85;;;;;;;13.56;60.19;97160.41;4984727;28;20120;-59
2023/01/05 10:58:34;;;;;;;25.95;17.70;;;;;;;13.25;61.27;97145.06;4984341;28;20062;-59
2023/01/05 11:01:22;;;;;;;21.17;14.75;;;;;;;13.27;60.40;97145.47;4984943;28;20094;-56
2023/01/05 11:03:54;;;;;;;20.33;13.95;;;;;;;12.92;59.71;97085.94;4984683;28;20169;-59
2023/01/05 11:06:41;;;;;;;20.45;15.55;;;;;;;13.36;59.48;97126.47;4984245;28;20627;-54
2023/01/05 11:09:25;;;;;;;22.00;16.13;;;;;;;13.41;59.34;97120.53;4984240;28;20572;-54
2023/01/05 11:11:57;;;;;;;33.28;20.92;;;;;;;13.24;59.61;97062.81;4982842;28;20050;-60
2023/01/05 11:14:28;;;;;;;26.40;16.63;;;;;;;13.02;58.90;97002.66;4984592;28;20468;-58
2023/01/05 11:17:01;;;;;;;27.63;15.13;;;;;;;13.83;59.34;97103.28;4984618;28;20077;-54
2023/01/05 11:19:40;;;;;;;22.63;16.90;;;;;;;13.91;59.63;97099.34;4984505;28;20134;-59
2023/01/05 11:22:34;;;;;;;25.08;17.23;;;;;;;13.96;59.11;97084.28;4983870;28;20484;-55
2023/01/05 11:25:25;;;;;;;27.67;16.90;;;;;;;13.89;59.70;97095.38;4984853;28;20058;-55
2023/01/05 11:28:17;;;;;;;25.98;17.27;;;;;;;13.92;60.08;97084.25;4984369;28;20058;-57
2023/01/05 11:30:59;;;;;;;29.52;20.50;;;;;;;13.85;60.01;97059.16;4989316;28;20076;-54
2023/01/05 11:33:28;;;;;;;27.73;18.67;;;;;;;14.00;59.11;97062.81;4999236;28;20124;-53
2023/01/05 11:35:57;;;;;;;25.23;17.83;;;;;;;13.90;59.55;97069.13;4989640;28;20038;-55
2023/01/05 11:38:29;;;;;;;29.10;19.05;;;;;;;13.71;59.03;97056.31;5002322;28;20096;-54
2023/01/05 11:40:58;;;;;;;30.02;17.35;;;;;;;13.78;58.83;97063.91;5003551;28;20133;-54
2023/01/05 11:43:29;;;;;;;30.92;18.23;;;;;;;13.87;58.90;97053.19;5003376;28;20050;-55
2023/01/05 11:46:02;;;;;;;22.83;16.50;;;;;;;13.92;58.59;97050.84;5002742;28;20081;-55
2023/01/05 11:48:31;;;;;;;27.25;17.45;;;;;;;13.84;58.39;97048.41;5003538;28;20046;-56
2023/01/05 11:50:58;;;;;;;25.50;17.10;;;;;;;13.80;58.73;97047.59;5003391;28;20081;-55
2023/01/05 11:53:24;;;;;;;25.52;18.10;;;;;;;13.83;59.03;97046.81;4991633;28;20084;-54
2023/01/05 11:56:00;;;;;;;26.80;16.95;;;;;;;13.97;58.68;97069.16;5001933;28;20555;-58
2023/01/05 11:58:47;;;;;;;29.88;18.30;;;;;;;13.96;58.93;97073.13;4996964;28;20158;-53
2023/01/05 12:01:45;;;;;;;27.02;17.13;;;;;;;13.84;58.93;97065.13;5000733;28;20050;-57
2023/01/05 12:04:30;;;;;;;26.23;17.38;;;;;;;13.87;59.63;97055.97;4988624;28;20144;-53
2023/01/05 12:07:12;;;;;;;26.63;16.80;;;;;;;13.96;59.21;97051.63;5002962;28;20073;-52
2023/01/05 12:10:11;;;;;;;24.77;17.92;;;;;;;13.82;59.49;97039.63;4982366;28;20050;-52
2023/01/05 12:12:38;;;;;;;29.00;17.60;;;;;;;13.75;59.02;97039.63;5003185;28;20053;-56